Time;durP1;ratioP1;P1;durP2;ratioP2;P2;SDS_P1;SDS_P2;PMS_P1;PMS_P2;Temp;Humidity;BMP_temperature;BMP_pressure;BME280_temperature;BME280_humidity;BME280_pressure;Samples;Min_cycle;Max_cycle;Signal;HPM_P1;HPM_P2
2022/06/07 00:12:21;;;;;;;;;;;;;;;;;;;;;
2022/06/07 02:02:22;;;;;;;;;;;;;;;13.60;100.00;101108.63;5083989;23;19933;-85
2022/06/07 02:04:48;;;;;;;;;;;;;;;13.35;100.00;101108.59;5021929;28;19932;-86
2022/06/07 02:07:15;;;;;;;;;;;;;;;12.68;100.00;101108.88;5009908;28;19921;-85
2022/06/07 02:09:42;;;;;;;;;;;;;;;13.03;100.00;101109.31;5001053;28;19938;-85
2022/06/07 02:12:08;;;;;;;;;;;;;;;13.11;100.00;101110.13;5006124;28;20412;-86
2022/06/07 02:14:35;;;;;;;;;;;;;;;13.20;100.00;101111.53;5006362;28;19921;-86
2022/06/07 02:17:02;;;;;;;;;;;;;;;13.09;100.00;101114.84;5005595;28;19929;-85
2022/06/07 02:19:30;;;;;;;;;;;;;;;13.22;100.00;101112.94;5014917;28;20364;-85
2022/06/07 02:21:56;;;;;;;;;;;;;;;13.25;100.00;101114.38;5005150;28;19952;-84
2022/06/07 02:24:23;;;;;;;;;;;;;;;13.25;100.00;101112.56;5008693;28;19929;-85
2022/06/07 02:26:52;;;;;;;;;;;;;;;13.06;100.00;101108.09;5010015;28;19991;-86
2022/06/07 02:29:21;;;;;;;;;;;;;;;13.18;100.00;101110.91;5004736;28;20288;-86
2022/06/07 02:31:50;;;;;;;;;;;;;;;13.13;100.00;101108.06;5004936;28;19984;-85
2022/06/07 02:34:18;;;;;;;;;;;;;;;13.27;100.00;101110.47;5005762;28;19983;-85
2022/06/07 02:36:48;;;;;;;;;;;;;;;13.33;100.00;101116.00;5004153;28;19921;-86
2022/06/07 02:39:15;;;;;;;;;;;;;;;12.44;100.00;101112.22;5014145;28;19922;-86
2022/06/07 02:41:42;;;;;;;;;;;;;;;12.63;100.00;101113.19;5004593;28;19936;-84
2022/06/07 02:44:08;;;;;;;;;;;;;;;13.09;100.00;101110.34;5004937;28;19921;-85
2022/06/07 02:46:35;;;;;;;;;;;;;;;13.12;100.00;101117.91;4995532;28;19922;-86
2022/06/07 02:49:01;;;;;;;;;;;;;;;12.88;100.00;101114.13;5008900;28;19933;-86
2022/06/07 02:51:28;;;;;;;;;;;;;;;12.88;100.00;101114.13;5000258;28;19929;-87
2022/06/07 02:53:57;;;;;;;;;;;;;;;13.04;100.00;101121.66;5021849;28;19987;-85
2022/06/07 02:56:24;;;;;;;;;;;;;;;13.36;100.00;101120.91;5009843;28;19927;-86
2022/06/07 02:59:06;;;;;;;;;;;;;;;13.28;100.00;101124.63;5007310;28;19929;-86
2022/06/07 03:01:32;;;;;;;;;;;;;;;13.25;100.00;101114.38;5006733;28;19921;-84
2022/06/07 03:03:59;;;;;;;;;;;;;;;13.44;100.00;101118.78;5009599;28;19921;-86
2022/06/07 03:06:26;;;;;;;;;;;;;;;13.36;100.00;101107.56;5010040;28;19925;-85
2022/06/07 03:08:52;;;;;;;;;;;;;;;13.41;100.00;101108.56;5003997;28;19987;-86
2022/06/07 03:11:21;;;;;;;;;;;;;;;13.53;100.00;101114.03;5006843;28;20044;-86
2022/06/07 03:13:47;;;;;;;;;;;;;;;13.72;100.00;101112.25;5007994;28;20325;-85
2022/06/07 03:16:15;;;;;;;;;;;;;;;13.79;100.00;101122.84;5007171;28;19926;-85
2022/06/07 03:18:41;;;;;;;;;;;;;;;13.80;100.00;101116.47;5004876;28;19929;-86
2022/06/07 03:21:08;;;;;;;;;;;;;;;13.94;100.00;101116.16;5007430;28;19932;-85
2022/06/07 03:23:35;;;;;;;;;;;;;;;13.87;100.00;101115.41;5015624;28;19983;-85
2022/06/07 03:26:07;;;;;;;;;;;;;;;13.98;100.00;101117.38;5005651;28;19921;-86
2022/06/07 03:28:35;;;;;;;;;;;;;;;14.03;100.00;101115.88;5005516;28;19921;-86
2022/06/07 03:31:05;;;;;;;;;;;;;;;14.25;100.00;101122.47;5012349;28;19932;-86
2022/06/07 03:33:34;;;;;;;;;;;;;;;14.22;100.00;101112.25;5002375;28;19984;-86
2022/06/07 03:36:11;;;;;;;;;;;;;;;14.22;100.00;101114.91;5007744;28;19922;-85
2022/06/07 03:38:38;;;;;;;;;;;;;;;14.17;100.00;101118.22;5015378;28;19925;-86
2022/06/07 03:41:04;;;;;;;;;;;;;;;14.18;100.00;101121.72;5009039;28;19925;-85
2022/06/07 03:43:31;;;;;;;;;;;;;;;13.90;100.00;101120.31;5009024;28;20318;-87
2022/06/07 03:46:06;;;;;;;;;;;;;;;14.13;100.00;101119.72;5003242;28;20284;-86
2022/06/07 03:48:35;;;;;;;;;;;;;;;14.24;100.00;101120.81;5008798;28;20251;-86
2022/06/07 03:51:02;;;;;;;;;;;;;;;14.27;100.00;101124.91;5007316;28;20314;-87
2022/06/07 03:53:32;;;;;;;;;;;;;;;14.25;100.00;101127.81;5013341;28;20000;-85
2022/06/07 03:55:59;;;;;;;;;;;;;;;14.49;100.00;101126.13;5005629;28;19922;-87
2022/06/07 03:58:30;;;;;;;;;;;;;;;14.55;100.00;101124.44;5015349;28;19925;-85
2022/06/07 04:01:03;;;;;;;;;;;;;;;14.61;100.00;101126.22;5010938;28;19922;-88
2022/06/07 04:03:32;;;;;;;;;;;;;;;14.53;100.00;101130.03;5005642;28;19921;-87
2022/06/07 04:05:59;;;;;;;;;;;;;;;14.54;100.00;101130.84;5003077;28;19960;-87
2022/06/07 04:08:26;;;;;;;;;;;;;;;14.71;100.00;101131.09;5004110;28;19996;-86
2022/06/07 04:10:54;;;;;;;;;;;;;;;14.69;100.00;101133.16;5010667;28;20393;-86
2022/06/07 04:13:22;;;;;;;;;;;;;;;14.75;100.00;101135.75;5006174;28;20004;-87
2022/06/07 04:15:48;;;;;;;;;;;;;;;14.78;100.00;101131.81;5008997;28;19933;-87
2022/06/07 04:18:16;;;;;;;;;;;;;;;14.95;100.00;101119.47;5002516;28;20266;-87
2022/06/07 04:20:43;;;;;;;;;;;;;;;15.11;100.00;101126.06;5007307;28;19925;-86
2022/06/07 04:23:14;;;;;;;;;;;;;;;18.27;100.00;101129.22;5016435;28;19921;-87
2022/06/07 04:25:41;;;;;;;;;;;;;;;15.46;100.00;101120.00;5005147;28;20277;-84
2022/06/07 04:28:08;;;;;;;;;;;;;;;15.39;100.00;101120.09;5009769;28;20003;-85
2022/06/07 04:30:50;;;;;;;;;;;;;;;15.33;100.00;101116.47;5014754;28;19932;-83
2022/06/07 04:33:18;;;;;;;;;;;;;;;15.26;100.00;101117.63;5014262;28;20342;-85
2022/06/07 04:35:46;;;;;;;;;;;;;;;15.48;100.00;101123.28;5016307;28;19921;-86
2022/06/07 04:38:13;;;;;;;;;;;;;;;15.49;100.00;101122.22;5015083;28;19929;-86
2022/06/07 04:40:40;;;;;;;;;;;;;;;15.51;100.00;101125.50;5008053;28;19925;-86
2022/06/07 04:43:07;;;;;;;;;;;;;;;15.50;100.00;101124.69;5010888;28;19952;-86
2022/06/07 04:45:34;;;;;;;;;;;;;;;15.64;100.00;101133.31;5003887;28;19921;-84
2022/06/07 04:48:00;;;;;;;;;;;;;;;15.76;100.00;101134.22;5007775;28;19971;-86
2022/06/07 04:50:28;;;;;;;;;;;;;;;16.09;100.00;101132.84;5003860;28;19921;-86
2022/06/07 04:52:56;;;;;;;;;;;;;;;15.98;100.00;101131.81;5010619;28;19998;-85
2022/06/07 04:55:22;;;;;;;;;;;;;;;16.15;100.00;101139.94;5004903;28;20350;-87
2022/06/07 04:57:49;;;;;;;;;;;;;;;16.09;100.00;101135.53;5001074;28;19948;-84
2022/06/07 05:00:18;;;;;;;;;;;;;;;16.24;100.00;101132.38;5012933;28;19921;-86
2022/06/07 05:02:45;;;;;;;;;;;;;;;16.17;100.00;101143.22;5018028;28;19939;-86
2022/06/07 05:05:12;;;;;;;;;;;;;;;16.49;100.00;101134.84;5013799;28;19933;-85
2022/06/07 05:07:40;;;;;;;;;;;;;;;16.58;100.00;101137.94;5009753;28;20007;-86
2022/06/07 05:10:08;;;;;;;;;;;;;;;16.94;100.00;101142.22;5011311;28;20228;-86
2022/06/07 05:12:35;;;;;;;;;;;;;;;17.14;100.00;101144.50;5003032;28;19921;-86
2022/06/07 05:15:02;;;;;;;;;;;;;;;17.21;100.00;101142.47;5001808;28;19940;-86
2022/06/07 05:17:28;;;;;;;;;;;;;;;17.32;100.00;101147.00;5007252;28;19925;-85
2022/06/07 05:19:55;;;;;;;;;;;;;;;17.72;100.00;101145.28;5007424;28;19925;-85
2022/06/07 05:22:21;;;;;;;;;;;;;;;17.53;100.00;101144.69;5009036;28;19985;-86
2022/06/07 05:24:49;;;;;;;;;;;;;;;17.85;100.00;101143.13;5014604;28;19921;-85
2022/06/07 05:27:17;;;;;;;;;;;;;;;17.88;100.00;101144.50;5017674;28;19948;-86
2022/06/07 05:29:46;;;;;;;;;;;;;;;18.02;100.00;101142.31;5006617;28;19922;-87
2022/06/07 05:32:14;;;;;;;;;;;;;;;18.27;100.00;101145.38;5007194;28;19949;-87
2022/06/07 05:34:40;;;;;;;;;;;;;;;18.27;100.00;101148.06;5004673;28;19921;-87
2022/06/07 05:37:12;;;;;;;;;;;;;;;18.83;100.00;101147.25;5005959;28;19921;-85
2022/06/07 05:39:38;;;;;;;;;;;;;;;18.91;100.00;101153.00;5012880;28;20341;-86
2022/06/07 05:42:07;;;;;;;;;;;;;;;18.94;100.00;101148.97;5003387;28;19921;-86
2022/06/07 05:44:34;;;;;;;;;;;;;;;19.10;100.00;101149.97;4998878;28;19952;-86
2022/06/07 05:47:02;;;;;;;;;;;;;;;19.61;100.00;101139.72;5004749;28;19922;-87
2022/06/07 05:49:29;;;;;;;;;;;;;;;19.57;100.00;101135.91;5001184;28;19925;-88
2022/06/07 05:51:55;;;;;;;;;;;;;;;19.59;100.00;101142.66;5006245;28;19922;-87
2022/06/07 05:54:23;;;;;;;;;;;;;;;19.92;100.00;101135.44;4996561;28;20337;-87
2022/06/07 05:56:50;;;;;;;;;;;;;;;19.96;100.00;101131.13;5013218;28;19951;-87
2022/06/07 05:59:18;;;;;;;;;;;;;;;20.31;100.00;101137.84;5009037;28;19988;-87
2022/06/07 06:01:44;;;;;;;;;;;;;;;20.30;100.00;101128.94;5005572;28;20286;-87
2022/06/07 06:04:11;;;;;;;;;;;;;;;20.47;100.00;101131.47;5007179;28;19952;-87
2022/06/07 06:06:38;;;;;;;;;;;;;;;20.50;100.00;101130.13;5004687;28;20329;-88
2022/06/07 06:11:49;;;;;;;;;;;;;;;20.63;100.00;101128.88;5005835;28;20068;-87
2022/06/07 06:14:18;;;;;;;;;;;;;;;21.15;100.00;101123.41;5005143;28;20381;-86
2022/06/07 06:16:45;;;;;;;;;;;;;;;20.80;100.00;101122.19;5011448;28;19922;-86
2022/06/07 06:19:12;;;;;;;;;;;;;;;20.76;100.00;101125.69;5004753;28;19925;-86
2022/06/07 06:21:40;;;;;;;;;;;;;;;21.21;100.00;101121.50;5004429;28;19922;-87
2022/06/07 06:24:09;;;;;;;;;;;;;;;21.00;100.00;101110.66;5013292;28;19933;-86
2022/06/07 06:26:37;;;;;;;;;;;;;;;21.67;100.00;101113.50;5005372;28;19949;-87
2022/06/07 06:29:03;;;;;;;;;;;;;;;21.06;100.00;101111.50;4999826;28;19965;-87
2022/06/07 06:31:31;;;;;;;;;;;;;;;21.42;100.00;101114.25;5010440;28;20333;-86
2022/06/07 06:34:06;;;;;;;;;;;;;;;20.79;100.00;101111.69;5011409;28;19929;-86
2022/06/07 06:36:32;;;;;;;;;;;;;;;21.31;100.00;101108.03;5003518;28;20271;-86
2022/06/07 06:38:59;;;;;;;;;;;;;;;21.11;100.00;101113.38;5016933;28;19925;-86
2022/06/07 06:41:27;;;;;;;;;;;;;;;21.65;100.00;101107.53;5009167;28;19921;-85
2022/06/07 06:43:54;;;;;;;;;;;;;;;21.20;100.00;101106.38;5013109;28;19921;-88
2022/06/07 06:46:22;;;;;;;;;;;;;;;21.70;100.00;101099.44;5014937;28;19921;-86
2022/06/07 06:48:50;;;;;;;;;;;;;;;21.77;100.00;101104.56;5012502;28;19956;-86
2022/06/07 06:51:18;;;;;;;;;;;;;;;21.32;100.00;101106.94;5007184;28;19922;-87
2022/06/07 06:53:45;;;;;;;;;;;;;;;21.42;100.00;101107.00;5016470;28;19922;-86
2022/06/07 06:56:12;;;;;;;;;;;;;;;21.25;100.00;101101.78;5009540;28;19925;-84
2022/06/07 06:58:41;;;;;;;;;;;;;;;21.77;100.00;101099.16;5015861;28;19929;-87
2022/06/07 07:01:08;;;;;;;;;;;;;;;22.65;100.00;101104.09;5013622;28;19991;-86
2022/06/07 07:03:36;;;;;;;;;;;;;;;22.21;100.00;101098.56;5003999;28;19932;-85
2022/06/07 07:06:04;;;;;;;;;;;;;;;22.16;100.00;101102.06;5018083;28;19929;-86
2022/06/07 07:08:31;;;;;;;;;;;;;;;22.20;100.00;101092.34;5005859;28;19921;-86
2022/06/07 07:11:10;;;;;;;;;;;;;;;22.25;100.00;101094.25;5013478;28;19921;-85
2022/06/07 07:13:37;;;;;;;;;;;;;;;22.89;100.00;101092.63;5013822;28;19921;-86
2022/06/07 07:16:09;;;;;;;;;;;;;;;22.77;100.00;101090.25;5012249;28;20354;-86
2022/06/07 07:18:42;;;;;;;;;;;;;;;22.43;100.00;101093.63;5012716;28;19921;-85
2022/06/07 07:21:28;;;;;;;;;;;;;;;22.71;100.00;101088.66;5018568;28;19921;-86
2022/06/07 07:24:03;;;;;;;;;;;;;;;22.76;100.00;101088.63;5021172;28;20056;-85
2022/06/07 07:26:30;;;;;;;;;;;;;;;23.06;100.00;101080.38;5014353;28;20382;-85
2022/06/07 07:29:03;;;;;;;;;;;;;;;23.20;100.00;101071.59;5020496;28;20354;-85
2022/06/07 07:31:32;;;;;;;;;;;;;;;23.02;100.00;101076.59;5024346;28;20022;-86
2022/06/07 07:33:59;;;;;;;;;;;;;;;23.64;100.00;101073.44;5013393;28;19931;-85
2022/06/07 07:36:31;;;;;;;;;;;;;;;22.62;100.00;101083.81;5013803;28;19931;-85
2022/06/07 07:39:00;;;;;;;;;;;;;;;23.18;100.00;101073.75;5015527;28;20001;-86
2022/06/07 07:41:28;;;;;;;;;;;;;;;23.56;100.00;101066.69;5015528;28;19983;-87
2022/06/07 07:43:55;;;;;;;;;;;;;;;23.20;100.00;101060.75;5003603;28;19922;-86
2022/06/07 07:46:23;;;;;;;;;;;;;;;23.62;100.00;101062.06;5019978;28;19921;-86
2022/06/07 07:48:50;;;;;;;;;;;;;;;24.00;100.00;101066.59;5014724;28;20492;-87
2022/06/07 07:51:26;;;;;;;;;;;;;;;24.33;100.00;101066.78;5002766;28;20358;-86
2022/06/07 07:53:53;;;;;;;;;;;;;;;24.34;100.00;101054.81;5014265;28;19921;-86
2022/06/07 07:56:22;;;;;;;;;;;;;;;23.56;100.00;101053.16;5008020;28;19947;-87
2022/06/07 07:58:49;;;;;;;;;;;;;;;24.82;100.00;101051.25;5013956;28;19932;-86
2022/06/07 08:01:17;;;;;;;;;;;;;;;24.82;100.00;101043.91;5014010;28;20020;-87
2022/06/07 08:03:44;;;;;;;;;;;;;;;25.12;100.00;101039.09;5012629;28;19928;-88
2022/06/07 08:06:12;;;;;;;;;;;;;;;24.49;100.00;101036.75;5013001;28;19925;-86
2022/06/07 08:08:39;;;;;;;;;;;;;;;24.64;100.00;101040.06;5001284;28;20004;-85
2022/06/07 08:11:06;;;;;;;;;;;;;;;24.65;100.00;101030.81;5011595;28;19922;-86
2022/06/07 08:13:34;;;;;;;;;;;;;;;24.70;100.00;101034.56;5010350;28;19983;-86
2022/06/07 08:16:01;;;;;;;;;;;;;;;24.94;100.00;101029.06;5010595;28;20296;-86
2022/06/07 08:18:27;;;;;;;;;;;;;;;24.62;100.00;101031.41;5005393;28;19937;-86
2022/06/07 08:21:00;;;;;;;;;;;;;;;24.53;100.00;101033.16;5015204;28;19948;-86
2022/06/07 08:23:30;;;;;;;;;;;;;;;24.96;100.00;101027.66;5015102;28;19948;-86
2022/06/07 08:25:57;;;;;;;;;;;;;;;24.93;100.00;101028.22;5008842;28;19921;-87
2022/06/07 08:28:30;;;;;;;;;;;;;;;24.76;100.00;101015.19;5010418;28;19964;-86
2022/06/07 08:30:58;;;;;;;;;;;;;;;25.03;100.00;101022.66;5006662;28;20292;-86
2022/06/07 08:38:53;;;;;;;;;;;;;;;25.99;100.00;101022.13;5004844;28;19928;-85
2022/06/07 08:41:21;;;;;;;;;;;;;;;26.29;100.00;101017.16;5006425;28;19999;-84
2022/06/07 08:43:47;;;;;;;;;;;;;;;25.78;100.00;101016.25;5009344;28;19922;-86
2022/06/07 08:46:17;;;;;;;;;;;;;;;26.23;100.00;101018.38;5012631;28;19932;-85
2022/06/07 08:48:44;;;;;;;;;;;;;;;26.19;96.07;101014.66;5013442;28;19922;-86
2022/06/07 08:51:15;;;;;;;;;;;;;;;26.51;100.00;101008.31;5009377;28;20283;-85
2022/06/07 08:53:45;;;;;;;;;;;;;;;26.71;91.79;101012.47;5015045;28;20024;-85
2022/06/07 08:56:14;;;;;;;;;;;;;;;26.43;100.00;101004.34;5014407;28;19988;-86
2022/06/07 08:58:44;;;;;;;;;;;;;;;26.58;100.00;101007.88;5013627;28;19929;-85
2022/06/07 09:01:18;;;;;;;;;;;;;;;26.28;100.00;101010.91;5013354;28;19932;-85
2022/06/07 09:03:49;;;;;;;;;;;;;;;25.70;100.00;100999.81;5006917;28;19922;-86
2022/06/07 09:06:20;;;;;;;;;;;;;;;25.08;100.00;100998.13;5006343;28;19921;-85
2022/06/07 09:08:48;;;;;;;;;;;;;;;25.78;100.00;100994.50;5013277;28;20012;-84
2022/06/07 09:14:05;;;;;;;;;;;;;;;27.07;100.00;100984.38;5009230;28;20424;-85
2022/06/07 09:16:36;;;;;;;;;;;;;;;26.21;94.89;100983.31;5012099;28;20024;-88
2022/06/07 09:19:08;;;;;;;;;;;;;;;26.05;95.03;100984.72;5008342;28;19921;-86
2022/06/07 09:21:41;;;;;;;;;;;;;;;26.71;100.00;100979.78;5005835;28;20417;-85
2022/06/07 09:24:10;;;;;;;;;;;;;;;27.42;85.25;100977.25;5012660;28;19988;-85
2022/06/07 09:26:47;;;;;;;;;;;;;;;26.66;77.14;100978.00;5007053;28;19922;-86
2022/06/07 09:32:14;;;;;;;;;;;;;;;26.39;82.97;100967.16;5009063;28;19933;-86
2022/06/07 09:34:56;;;;;;;;;;;;;;;27.18;83.83;100962.03;5009638;28;19933;-87
2022/06/07 09:37:37;;;;;;;;;;;;;;;27.18;94.95;100967.50;5002186;28;20326;-86
2022/06/07 09:40:26;;;;;;;;;;;;;;;27.39;73.89;100956.06;5014510;28;19921;-87
2022/06/07 09:42:55;;;;;;;;;;;;;;;27.48;81.30;100954.19;5017131;28;19921;-86
2022/06/07 09:45:34;;;;;;;;;;;;;;;27.63;80.07;100958.41;5013869;28;19936;-86
2022/06/07 09:48:18;;;;;;;;;;;;;;;27.54;61.64;100958.38;5012183;28;20340;-85
2022/06/07 09:50:56;;;;;;;;;;;;;;;27.46;66.18;100945.50;5010416;28;20384;-86
2022/06/07 09:56:26;;;;;;;;;;;;;;;27.27;75.53;100939.47;4996957;28;19936;-85
2022/06/07 09:59:08;;;;;;;;;;;;;;;27.37;81.58;100931.81;5010240;28;19921;-87
2022/06/07 10:01:52;;;;;;;;;;;;;;;;;;;;;
2022/06/07 10:07:19;;;;;;;;;;;;;;;27.52;75.31;100936.06;5000206;28;19952;-84
2022/06/07 10:10:03;;;;;;;;;;;;;;;27.30;69.00;100934.19;5010388;28;19922;-85
2022/06/07 10:15:53;;;;;;;;;;;;;;;26.67;79.63;100935.22;4973638;28;20267;-86
2022/06/07 10:18:27;;;;;;;;;;;;;;;26.42;72.80;100939.31;5011432;28;20390;-87
2022/06/07 10:21:21;;;;;;;;;;;;;;;26.72;80.52;100946.00;5013373;28;19944;-86
2022/06/07 10:24:06;;;;;;;;;;;;;;;26.92;77.49;100939.22;4971524;28;19943;-85
2022/06/07 10:27:05;;;;;;;;;;;;;;;27.03;72.81;100929.69;5013131;28;19921;-85
2022/06/07 10:32:46;;;;;;;;;;;;;;;26.85;83.42;100920.59;4985012;28;20000;-85
2022/06/07 10:35:30;;;;;;;;;;;;;;;27.51;72.61;100928.19;5008777;28;19933;-85
2022/06/07 10:38:08;;;;;;;;;;;;;;;27.25;74.75;100917.97;5017313;28;20306;-86
2022/06/07 10:40:41;;;;;;;;;;;;;;;27.50;75.56;100916.47;5009237;28;19929;-86
2022/06/07 10:43:25;;;;;;;;;;;;;;;27.28;64.65;100917.34;5010949;28;19932;-86
2022/06/07 10:46:17;;;;;;;;;;;;;;;27.26;72.09;100916.03;5010512;28;20013;-86
2022/06/07 10:48:54;;;;;;;;;;;;;;;27.61;71.13;100914.28;5006513;28;19921;-87
2022/06/07 10:54:37;;;;;;;;;;;;;;;27.81;79.53;100904.75;5012939;28;19932;-84
2022/06/07 10:57:24;;;;;;;;;;;;;;;27.21;68.88;100911.53;5010770;28;19922;-87
2022/06/07 10:59:53;;;;;;;;;;;;;;;27.29;74.25;100902.56;5012597;28;19975;-86
2022/06/07 11:02:33;;;;;;;;;;;;;;;27.91;71.00;100909.09;5003559;28;19921;-86
2022/06/07 11:10:45;;;;;;;;;;;;;;;28.50;68.55;100888.44;5005988;28;19933;-86
2022/06/07 11:13:22;;;;;;;;;;;;;;;28.56;63.17;100880.06;5005059;28;19932;-86
2022/06/07 11:15:54;;;;;;;;;;;;;;;28.80;66.05;100877.59;5010392;28;19944;-89
2022/06/07 11:18:31;;;;;;;;;;;;;;;28.39;73.02;100887.13;5008057;28;20334;-87
2022/06/07 11:21:14;;;;;;;;;;;;;;;28.17;63.22;100884.53;5006567;28;19925;-86
2022/06/07 11:27:02;;;;;;;;;;;;;;;28.23;59.96;100875.88;4969091;28;19928;-85
2022/06/07 11:32:42;;;;;;;;;;;;;;;27.61;65.77;100868.69;5003843;28;20270;-86
2022/06/07 11:35:30;;;;;;;;;;;;;;;27.62;64.63;100870.28;5003156;28;19922;-85
2022/06/07 11:37:59;;;;;;;;;;;;;;;27.62;57.59;100861.31;5004478;28;20400;-85
2022/06/07 11:40:46;;;;;;;;;;;;;;;27.53;63.97;100866.72;5008287;28;20247;-86
2022/06/07 11:43:33;;;;;;;;;;;;;;;27.95;60.41;100864.44;5010469;28;19940;-85
2022/06/07 11:46:25;;;;;;;;;;;;;;;28.27;64.96;100849.53;5007262;28;19921;-86
2022/06/07 11:48:58;;;;;;;;;;;;;;;29.46;56.15;100863.56;5003765;28;19933;-84
2022/06/07 11:51:24;;;;;;;;;;;;;;;28.16;56.33;100850.19;5010953;28;19921;-85
2022/06/07 11:54:12;;;;;;;;;;;;;;;27.62;53.83;100858.56;5009344;28;19925;-85
2022/06/07 11:56:43;;;;;;;;;;;;;;;28.06;52.49;100843.13;5014533;28;20369;-86
2022/06/07 11:59:40;;;;;;;;;;;;;;;28.31;58.91;100831.38;5014985;28;20376;-85
2022/06/07 12:02:27;;;;;;;;;;;;;;;27.12;66.26;100845.25;4930155;29;19930;-84
2022/06/07 12:05:19;;;;;;;;;;;;;;;27.70;62.38;100841.44;4937296;29;19962;-85
2022/06/07 12:07:48;;;;;;;;;;;;;;;27.95;58.11;100831.69;5001128;28;20337;-85
2022/06/07 12:10:28;;;;;;;;;;;;;;;28.10;68.78;100830.41;5010949;28;20338;-86
2022/06/07 12:13:11;;;;;;;;;;;;;;;27.80;64.58;100832.97;5012640;28;19925;-85
2022/06/07 12:15:54;;;;;;;;;;;;;;;28.08;54.90;100827.22;5013283;28;20350;-84
2022/06/07 12:18:23;;;;;;;;;;;;;;;28.19;46.99;100817.56;5008987;28;20413;-85
2022/06/07 12:20:54;;;;;;;;;;;;;;;28.35;51.74;100828.78;5009722;28;19922;-86
2022/06/07 12:23:23;;;;;;;;;;;;;;;28.08;52.01;100827.22;5013504;28;19932;-85
2022/06/07 12:26:02;;;;;;;;;;;;;;;27.86;55.54;100826.22;5010100;28;19921;-86
2022/06/07 12:28:36;;;;;;;;;;;;;;;27.47;56.33;100829.00;5015434;28;19983;-85
2022/06/07 12:31:18;;;;;;;;;;;;;;;27.74;57.73;100823.28;5002064;28;19922;-84
2022/06/07 12:33:50;;;;;;;;;;;;;;;27.46;57.60;100825.50;5009356;28;20306;-86
2022/06/07 12:36:49;;;;;;;;;;;;;;;27.23;61.27;100822.03;5008411;28;20370;-85
2022/06/07 12:39:39;;;;;;;;;;;;;;;26.89;63.98;100818.03;4999331;28;19991;-85
2022/06/07 12:42:27;;;;;;;;;;;;;;;26.64;69.79;100826.88;5005132;28;19921;-85
2022/06/07 12:44:56;;;;;;;;;;;;;;;26.51;71.36;100825.84;5011362;28;20000;-85
2022/06/07 12:47:48;;;;;;;;;;;;;;;26.46;71.88;100824.00;5004017;28;19928;-86
2022/06/07 12:50:24;;;;;;;;;;;;;;;26.52;68.92;100826.63;5007161;28;19921;-85
2022/06/07 12:52:54;;;;;;;;;;;;;;;26.71;71.83;100822.56;5007545;28;20346;-86
2022/06/07 12:58:29;;;;;;;;;;;;;;;26.36;66.27;100816.09;4982775;28;19921;-86
2022/06/07 13:57:11;;;;;;;;;;;;;;;24.88;100.00;100825.41;5911380;23;19984;-85
2022/06/07 13:59:38;;;;;;;;;;;;;;;25.02;100.00;100822.69;5027937;28;20376;-86
2022/06/07 14:02:11;;;;;;;;;;;;;;;25.08;100.00;100820.69;5026469;28;19920;-85
2022/06/07 14:04:38;;;;;;;;;;;;;;;25.25;100.00;100818.22;5024270;28;19934;-86
2022/06/07 14:07:10;;;;;;;;;;;;;;;25.20;100.00;100820.22;5029239;28;20380;-86
2022/06/07 14:09:37;;;;;;;;;;;;;;;25.28;100.00;100812.19;5017972;28;19928;-85
2022/06/07 14:12:06;;;;;;;;;;;;;;;25.01;100.00;100812.13;5026002;28;19921;-86
2022/06/07 14:14:37;;;;;;;;;;;;;;;25.06;100.00;100812.84;5026564;28;19932;-85
2022/06/07 14:17:07;;;;;;;;;;;;;;;24.73;100.00;100803.94;5024195;28;19944;-87
2022/06/07 14:19:39;;;;;;;;;;;;;;;24.85;100.00;100806.19;5023230;28;19931;-87
2022/06/07 14:22:15;;;;;;;;;;;;;;;24.89;100.00;100808.00;5025372;28;20012;-86
2022/06/07 14:24:42;;;;;;;;;;;;;;;25.22;100.00;100801.72;5016212;28;19921;-85
2022/06/07 14:27:12;;;;;;;;;;;;;;;25.26;100.00;100791.84;5021496;28;19925;-86
2022/06/07 14:29:39;;;;;;;;;;;;;;;25.11;100.00;100792.91;5026150;28;19921;-86
2022/06/07 14:32:06;;;;;;;;;;;;;;;25.20;100.00;100791.13;5024656;28;20376;-85
2022/06/07 14:34:35;;;;;;;;;;;;;;;24.94;100.00;100787.28;5024671;28;19987;-86
2022/06/07 14:37:03;;;;;;;;;;;;;;;24.97;100.00;100787.50;5025733;28;19956;-85
2022/06/07 14:39:31;;;;;;;;;;;;;;;25.01;100.00;100779.53;5031387;28;19983;-87
2022/06/07 14:45:02;;;;;;;;;;;;;;;25.02;100.00;100781.13;5025207;28;20355;-87
2022/06/07 14:47:30;;;;;;;;;;;;;;;25.15;100.00;100771.44;5020056;28;20047;-86
2022/06/07 14:50:00;;;;;;;;;;;;;;;25.00;100.00;100772.50;5022075;28;20400;-85
2022/06/07 14:52:26;;;;;;;;;;;;;;;25.35;98.77;100779.16;5025590;28;19991;-88
2022/06/07 14:54:56;;;;;;;;;;;;;;;25.32;100.00;100774.31;5029478;28;19928;-88
2022/06/07 14:57:23;;;;;;;;;;;;;;;25.94;92.15;100760.22;5028001;28;20357;-87
2022/06/07 14:59:52;;;;;;;;;;;;;;;25.81;85.30;100759.13;5029426;28;19932;-85
2022/06/07 15:05:31;;;;;;;;;;;;;;;26.18;81.81;100751.75;5011791;28;20361;-88
2022/06/07 15:08:06;;;;;;;;;;;;;;;26.15;82.08;100747.75;5023640;28;19925;-85
2022/06/07 15:10:35;;;;;;;;;;;;;;;26.48;81.40;100744.75;5031384;28;19967;-86
2022/06/07 15:15:53;;;;;;;;;;;;;;;26.28;75.18;100735.16;5021408;28;19929;-87
2022/06/07 15:18:20;;;;;;;;;;;;;;;26.37;78.35;100733.28;5024699;28;19944;-87
2022/06/07 15:20:59;;;;;;;;;;;;;;;25.79;76.51;100736.88;5024665;28;19960;-86
2022/06/07 15:23:44;;;;;;;;;;;;;;;25.74;74.30;100739.69;5032565;28;19932;-86
2022/06/07 15:26:40;;;;;;;;;;;;;;;25.96;72.17;100738.94;5027714;28;19939;-87
2022/06/07 15:31:51;;;;;;;;;;;;;;;26.12;69.95;100745.63;5023328;28;19921;-87
2022/06/07 15:34:21;;;;;;;;;;;;;;;25.68;70.04;100749.09;5025786;28;19925;-86
2022/06/07 15:36:50;;;;;;;;;;;;;;;25.26;71.60;100742.91;5030423;28;19921;-88
2022/06/07 15:39:18;;;;;;;;;;;;;;;25.30;83.61;100741.22;5034443;28;19921;-88
2022/06/07 15:44:28;;;;;;;;;;;;;;;25.12;87.31;100745.63;5022108;28;19931;-86
2022/06/07 15:47:18;;;;;;;;;;;;;;;25.13;84.55;100744.53;5032960;28;20342;-86
2022/06/07 15:49:46;;;;;;;;;;;;;;;25.40;84.31;100738.28;5028770;28;20326;-89
2022/06/07 15:52:16;;;;;;;;;;;;;;;25.38;82.13;100740.47;5032632;28;19932;-88
2022/06/07 15:54:48;;;;;;;;;;;;;;;25.43;80.08;100740.38;5023988;28;20404;-86
2022/06/07 15:57:15;;;;;;;;;;;;;;;25.09;83.06;100740.81;5034629;28;19921;-88
2022/06/07 15:59:40;;;;;;;;;;;;;;;25.33;79.91;100738.69;5034996;28;19921;-87
2022/06/07 16:02:31;;;;;;;;;;;;;;;25.33;84.65;100744.13;5033966;28;20004;-88
2022/06/07 16:04:59;;;;;;;;;;;;;;;25.39;82.28;100742.13;5025185;28;19925;-87
2022/06/07 16:07:35;;;;;;;;;;;;;;;25.10;86.62;100747.84;5029377;28;20367;-87
2022/06/07 16:10:02;;;;;;;;;;;;;;;25.24;85.84;100743.25;5027878;28;19983;-87
2022/06/07 16:12:30;;;;;;;;;;;;;;;25.28;89.46;100738.78;5030805;28;20293;-88
2022/06/07 16:15:02;;;;;;;;;;;;;;;24.90;90.51;100730.84;5023840;28;19929;-87
2022/06/07 16:17:34;;;;;;;;;;;;;;;24.89;91.68;100737.38;5028137;28;19936;-88
2022/06/07 16:20:01;;;;;;;;;;;;;;;25.03;90.92;100731.16;5033009;28;19921;-87
2022/06/07 16:22:38;;;;;;;;;;;;;;;24.91;90.17;100735.16;5026794;28;19921;-87
2022/06/07 16:25:08;;;;;;;;;;;;;;;24.95;96.29;100742.72;5023169;28;19921;-88
2022/06/07 16:33:19;;;;;;;;;;;;;;;25.03;100.00;100742.81;5012858;28;19931;-87
2022/06/07 16:35:46;;;;;;;;;;;;;;;24.97;100.00;100733.16;5026370;28;19921;-86
2022/06/07 16:38:25;;;;;;;;;;;;;;;25.06;100.00;100734.06;5031923;28;20358;-86
2022/06/07 16:40:52;;;;;;;;;;;;;;;24.87;99.23;100730.63;5029334;28;19920;-88
2022/06/07 16:46:37;;;;;;;;;;;;;;;24.80;98.21;100722.88;5026879;28;19944;-86
2022/06/07 16:49:05;;;;;;;;;;;;;;;24.86;96.71;100721.66;5025655;28;20358;-87
2022/06/07 16:51:32;;;;;;;;;;;;;;;24.74;95.54;100723.28;5021568;28;19925;-88
2022/06/07 16:54:00;;;;;;;;;;;;;;;24.76;100.00;100726.50;5016961;28;19929;-87
2022/06/07 16:56:27;;;;;;;;;;;;;;;24.67;100.00;100723.69;5032023;28;19964;-85